sensor_id;sensor_type;location;lat;lon;timestamp;temperature;humidity
4201;DHT22;2114;50.398;8.814;2023-01-15T00:03:59;8.40;99.90
4201;DHT22;2114;50.398;8.814;2023-01-15T00:09:00;8.40;99.90
4201;DHT22;2114;50.398;8.814;2023-01-15T00:14:00;8.40;99.90
4201;DHT22;2114;50.398;8.814;2023-01-15T00:19:01;8.40;99.90
4201;DHT22;2114;50.398;8.814;2023-01-15T00:24:04;8.40;99.90
4201;DHT22;2114;50.398;8.814;2023-01-15T00:29:23;8.40;99.90
4201;DHT22;2114;50.398;8.814;2023-01-15T00:34:25;8.40;99.90
4201;DHT22;2114;50.398;8.814;2023-01-15T00:39:26;8.40;99.90
4201;DHT22;2114;50.398;8.814;2023-01-15T00:44:27;8.50;99.90
4201;DHT22;2114;50.398;8.814;2023-01-15T00:49:28;8.50;99.90
4201;DHT22;2114;50.398;8.814;2023-01-15T00:54:29;8.50;99.90
4201;DHT22;2114;50.398;8.814;2023-01-15T00:59:29;8.50;99.90
4201;DHT22;2114;50.398;8.814;2023-01-15T01:04:30;8.50;99.90
4201;DHT22;2114;50.398;8.814;2023-01-15T01:09:30;8.50;99.90
4201;DHT22;2114;50.398;8.814;2023-01-15T01:14:31;8.50;99.90
4201;DHT22;2114;50.398;8.814;2023-01-15T01:19:31;8.50;99.90
4201;DHT22;2114;50.398;8.814;2023-01-15T01:24:32;8.40;99.90
4201;DHT22;2114;50.398;8.814;2023-01-15T01:29:32;8.40;99.90
4201;DHT22;2114;50.398;8.814;2023-01-15T01:34:33;8.30;99.90
4201;DHT22;2114;50.398;8.814;2023-01-15T01:39:33;8.30;99.90
4201;DHT22;2114;50.398;8.814;2023-01-15T01:49:36;8.20;99.90
4201;DHT22;2114;50.398;8.814;2023-01-15T01:54:38;8.10;99.90
4201;DHT22;2114;50.398;8.814;2023-01-15T01:59:39;8.00;99.90
4201;DHT22;2114;50.398;8.814;2023-01-15T02:04:40;7.90;99.90
4201;DHT22;2114;50.398;8.814;2023-01-15T02:09:41;7.80;99.90
4201;DHT22;2114;50.398;8.814;2023-01-15T02:15:05;7.70;99.90
4201;DHT22;2114;50.398;8.814;2023-01-15T02:20:21;7.60;99.90
4201;DHT22;2114;50.398;8.814;2023-01-15T02:31:42;7.50;99.90
4201;DHT22;2114;50.398;8.814;2023-01-15T02:36:18;7.40;99.90
4201;DHT22;2114;50.398;8.814;2023-01-15T02:41:25;7.40;99.90
4201;DHT22;2114;50.398;8.814;2023-01-15T02:46:30;7.30;99.90
4201;DHT22;2114;50.398;8.814;2023-01-15T02:51:37;7.20;99.90
4201;DHT22;2114;50.398;8.814;2023-01-15T02:56:41;7.20;99.90
4201;DHT22;2114;50.398;8.814;2023-01-15T03:01:50;7.10;99.90
4201;DHT22;2114;50.398;8.814;2023-01-15T03:07:17;7.10;99.90
4201;DHT22;2114;50.398;8.814;2023-01-15T03:12:23;7.00;99.90
4201;DHT22;2114;50.398;8.814;2023-01-15T03:23:10;6.70;99.90
4201;DHT22;2114;50.398;8.814;2023-01-15T03:28:15;6.60;99.90
4201;DHT22;2114;50.398;8.814;2023-01-15T03:33:17;6.50;99.90
4201;DHT22;2114;50.398;8.814;2023-01-15T03:38:22;6.40;99.90
4201;DHT22;2114;50.398;8.814;2023-01-15T03:49:03;6.20;99.90
4201;DHT22;2114;50.398;8.814;2023-01-15T03:54:10;6.10;99.90
4201;DHT22;2114;50.398;8.814;2023-01-15T03:59:23;6.00;99.90
4201;DHT22;2114;50.398;8.814;2023-01-15T04:04:27;6.00;99.90
4201;DHT22;2114;50.398;8.814;2023-01-15T04:09:28;5.90;99.90
4201;DHT22;2114;50.398;8.814;2023-01-15T04:14:29;5.90;99.90
4201;DHT22;2114;50.398;8.814;2023-01-15T04:19:30;5.90;99.90
4201;DHT22;2114;50.398;8.814;2023-01-15T04:24:30;5.90;99.90
4201;DHT22;2114;50.398;8.814;2023-01-15T04:29:31;5.90;99.90
4201;DHT22;2114;50.398;8.814;2023-01-15T04:34:31;5.90;99.90
4201;DHT22;2114;50.398;8.814;2023-01-15T04:39:34;5.90;99.90
4201;DHT22;2114;50.398;8.814;2023-01-15T04:44:35;5.80;99.90
4201;DHT22;2114;50.398;8.814;2023-01-15T04:49:35;5.80;99.90
4201;DHT22;2114;50.398;8.814;2023-01-15T04:54:36;5.80;99.90
4201;DHT22;2114;50.398;8.814;2023-01-15T04:59:38;5.70;99.90
4201;DHT22;2114;50.398;8.814;2023-01-15T05:04:38;5.70;99.90
4201;DHT22;2114;50.398;8.814;2023-01-15T05:09:39;5.70;99.90
4201;DHT22;2114;50.398;8.814;2023-01-15T05:14:39;5.70;99.90
4201;DHT22;2114;50.398;8.814;2023-01-15T05:19:40;5.60;99.90
4201;DHT22;2114;50.398;8.814;2023-01-15T05:24:40;5.60;99.90
4201;DHT22;2114;50.398;8.814;2023-01-15T05:29:41;5.50;99.90
4201;DHT22;2114;50.398;8.814;2023-01-15T05:34:41;5.50;99.90
4201;DHT22;2114;50.398;8.814;2023-01-15T05:39:42;5.40;99.90
4201;DHT22;2114;50.398;8.814;2023-01-15T05:44:42;5.40;99.90
4201;DHT22;2114;50.398;8.814;2023-01-15T05:49:43;5.40;99.90
4201;DHT22;2114;50.398;8.814;2023-01-15T05:54:43;5.40;99.90
4201;DHT22;2114;50.398;8.814;2023-01-15T05:59:44;5.40;99.90
4201;DHT22;2114;50.398;8.814;2023-01-15T06:04:44;5.40;99.90
4201;DHT22;2114;50.398;8.814;2023-01-15T06:09:45;5.40;99.90
4201;DHT22;2114;50.398;8.814;2023-01-15T06:14:45;5.40;99.90
4201;DHT22;2114;50.398;8.814;2023-01-15T06:19:46;5.40;99.90
4201;DHT22;2114;50.398;8.814;2023-01-15T06:24:46;5.30;99.90
4201;DHT22;2114;50.398;8.814;2023-01-15T06:29:47;5.30;99.90
4201;DHT22;2114;50.398;8.814;2023-01-15T06:34:48;5.30;99.90
4201;DHT22;2114;50.398;8.814;2023-01-15T06:39:49;5.30;99.90
4201;DHT22;2114;50.398;8.814;2023-01-15T06:44:49;5.30;99.90
4201;DHT22;2114;50.398;8.814;2023-01-15T06:50:10;5.30;99.90
4201;DHT22;2114;50.398;8.814;2023-01-15T06:55:10;5.30;99.90
4201;DHT22;2114;50.398;8.814;2023-01-15T07:00:11;5.20;99.90
4201;DHT22;2114;50.398;8.814;2023-01-15T07:05:12;5.20;99.90
4201;DHT22;2114;50.398;8.814;2023-01-15T07:10:12;5.10;99.90
4201;DHT22;2114;50.398;8.814;2023-01-15T07:15:13;5.00;99.90
4201;DHT22;2114;50.398;8.814;2023-01-15T07:20:14;5.00;99.90
4201;DHT22;2114;50.398;8.814;2023-01-15T07:25:15;5.00;99.90
4201;DHT22;2114;50.398;8.814;2023-01-15T07:30:16;5.00;99.90
4201;DHT22;2114;50.398;8.814;2023-01-15T07:35:16;5.10;99.90
4201;DHT22;2114;50.398;8.814;2023-01-15T07:40:17;5.10;99.90
4201;DHT22;2114;50.398;8.814;2023-01-15T07:45:17;5.00;99.90
4201;DHT22;2114;50.398;8.814;2023-01-15T07:50:37;5.00;99.90
4201;DHT22;2114;50.398;8.814;2023-01-15T07:55:37;5.00;99.90
4201;DHT22;2114;50.398;8.814;2023-01-15T08:00:38;5.00;99.90
4201;DHT22;2114;50.398;8.814;2023-01-15T08:05:38;5.00;99.90
4201;DHT22;2114;50.398;8.814;2023-01-15T08:10:39;5.00;99.90
4201;DHT22;2114;50.398;8.814;2023-01-15T08:15:59;5.00;99.90
4201;DHT22;2114;50.398;8.814;2023-01-15T08:21:00;5.00;99.90
4201;DHT22;2114;50.398;8.814;2023-01-15T08:26:00;5.00;99.90
4201;DHT22;2114;50.398;8.814;2023-01-15T08:31:01;5.00;99.90
4201;DHT22;2114;50.398;8.814;2023-01-15T08:36:01;5.10;99.90
4201;DHT22;2114;50.398;8.814;2023-01-15T08:41:02;5.10;99.90
4201;DHT22;2114;50.398;8.814;2023-01-15T08:46:04;5.10;99.90
4201;DHT22;2114;50.398;8.814;2023-01-15T08:51:06;5.10;99.90
4201;DHT22;2114;50.398;8.814;2023-01-15T08:56:18;5.10;99.90
4201;DHT22;2114;50.398;8.814;2023-01-15T09:01:19;5.10;99.90
4201;DHT22;2114;50.398;8.814;2023-01-15T09:06:19;5.10;99.90
4201;DHT22;2114;50.398;8.814;2023-01-15T09:11:20;5.10;99.90
4201;DHT22;2114;50.398;8.814;2023-01-15T09:16:21;5.10;99.90
4201;DHT22;2114;50.398;8.814;2023-01-15T09:21:21;5.10;99.90
4201;DHT22;2114;50.398;8.814;2023-01-15T09:26:33;5.20;99.90
4201;DHT22;2114;50.398;8.814;2023-01-15T09:31:34;5.20;99.90
4201;DHT22;2114;50.398;8.814;2023-01-15T09:36:35;5.20;99.90
4201;DHT22;2114;50.398;8.814;2023-01-15T09:47:14;5.30;99.90
4201;DHT22;2114;50.398;8.814;2023-01-15T09:57:30;5.40;99.90
4201;DHT22;2114;50.398;8.814;2023-01-15T10:02:41;5.40;99.90
4201;DHT22;2114;50.398;8.814;2023-01-15T10:12:53;5.40;99.90
4201;DHT22;2114;50.398;8.814;2023-01-15T10:17:57;5.40;99.90
4201;DHT22;2114;50.398;8.814;2023-01-15T10:28:39;5.40;99.90
4201;DHT22;2114;50.398;8.814;2023-01-15T10:34:20;5.40;99.90
4201;DHT22;2114;50.398;8.814;2023-01-15T10:45:43;5.40;99.90
4201;DHT22;2114;50.398;8.814;2023-01-15T10:50:25;5.30;99.90
4201;DHT22;2114;50.398;8.814;2023-01-15T10:55:31;5.30;99.90
4201;DHT22;2114;50.398;8.814;2023-01-15T11:00:33;5.30;99.90
4201;DHT22;2114;50.398;8.814;2023-01-15T11:05:34;5.30;99.90
4201;DHT22;2114;50.398;8.814;2023-01-15T11:10:35;5.30;99.90
4201;DHT22;2114;50.398;8.814;2023-01-15T11:15:37;5.30;99.90
4201;DHT22;2114;50.398;8.814;2023-01-15T11:20:57;5.30;99.90
4201;DHT22;2114;50.398;8.814;2023-01-15T11:25:59;5.30;99.90
4201;DHT22;2114;50.398;8.814;2023-01-15T11:31:00;5.40;99.90
4201;DHT22;2114;50.398;8.814;2023-01-15T11:36:17;5.40;99.90
4201;DHT22;2114;50.398;8.814;2023-01-15T11:41:26;5.50;99.90
4201;DHT22;2114;50.398;8.814;2023-01-15T11:46:46;5.70;99.90
4201;DHT22;2114;50.398;8.814;2023-01-15T11:52:16;5.80;99.90
4201;DHT22;2114;50.398;8.814;2023-01-15T11:57:26;6.00;99.90
4201;DHT22;2114;50.398;8.814;2023-01-15T12:02:39;6.10;99.90
4201;DHT22;2114;50.398;8.814;2023-01-15T12:07:44;6.20;99.90
4201;DHT22;2114;50.398;8.814;2023-01-15T12:13:19;6.30;99.90
4201;DHT22;2114;50.398;8.814;2023-01-15T12:18:40;6.50;99.90
4201;DHT22;2114;50.398;8.814;2023-01-15T12:29:22;7.10;99.90
4201;DHT22;2114;50.398;8.814;2023-01-15T12:34:37;7.30;99.90
4201;DHT22;2114;50.398;8.814;2023-01-15T12:39:48;7.50;99.90
4201;DHT22;2114;50.398;8.814;2023-01-15T12:44:59;7.50;99.90
4201;DHT22;2114;50.398;8.814;2023-01-15T12:55:35;7.80;99.90
4201;DHT22;2114;50.398;8.814;2023-01-15T13:00:41;7.90;99.90
4201;DHT22;2114;50.398;8.814;2023-01-15T13:05:55;7.70;99.90
4201;DHT22;2114;50.398;8.814;2023-01-15T13:10:57;7.50;99.90
4201;DHT22;2114;50.398;8.814;2023-01-15T13:16:17;7.20;99.90
4201;DHT22;2114;50.398;8.814;2023-01-15T13:21:19;6.90;99.90
4201;DHT22;2114;50.398;8.814;2023-01-15T13:26:38;6.70;99.90
4201;DHT22;2114;50.398;8.814;2023-01-15T13:31:53;6.50;99.90
4201;DHT22;2114;50.398;8.814;2023-01-15T13:37:02;6.30;99.90
4201;DHT22;2114;50.398;8.814;2023-01-15T13:42:05;6.20;99.90
4201;DHT22;2114;50.398;8.814;2023-01-15T13:47:27;6.10;99.90
4201;DHT22;2114;50.398;8.814;2023-01-15T13:52:34;6.10;99.90
4201;DHT22;2114;50.398;8.814;2023-01-15T13:57:38;6.00;99.90
4201;DHT22;2114;50.398;8.814;2023-01-15T14:02:51;6.00;99.90
4201;DHT22;2114;50.398;8.814;2023-01-15T14:07:52;6.00;99.90
4201;DHT22;2114;50.398;8.814;2023-01-15T14:23:38;6.30;99.90
4201;DHT22;2114;50.398;8.814;2023-01-15T14:34:15;6.40;99.90
4201;DHT22;2114;50.398;8.814;2023-01-15T14:44:56;6.40;99.90
4201;DHT22;2114;50.398;8.814;2023-01-15T14:55:20;6.40;99.90
4201;DHT22;2114;50.398;8.814;2023-01-15T15:00:22;6.30;99.90
4201;DHT22;2114;50.398;8.814;2023-01-15T15:05:26;6.30;99.90
4201;DHT22;2114;50.398;8.814;2023-01-15T15:10:36;6.30;99.90
4201;DHT22;2114;50.398;8.814;2023-01-15T15:21:21;6.20;99.90
4201;DHT22;2114;50.398;8.814;2023-01-15T15:26:29;6.10;99.90
4201;DHT22;2114;50.398;8.814;2023-01-15T15:31:38;6.00;99.90
4201;DHT22;2114;50.398;8.814;2023-01-15T15:36:39;6.00;99.90
4201;DHT22;2114;50.398;8.814;2023-01-15T15:41:40;6.00;99.90
4201;DHT22;2114;50.398;8.814;2023-01-15T15:47:18;6.00;99.90
4201;DHT22;2114;50.398;8.814;2023-01-15T15:52:43;5.90;99.90
4201;DHT22;2114;50.398;8.814;2023-01-15T15:57:46;5.90;99.90
4201;DHT22;2114;50.398;8.814;2023-01-15T16:02:48;5.80;99.90
4201;DHT22;2114;50.398;8.814;2023-01-15T16:07:49;5.80;99.90
4201;DHT22;2114;50.398;8.814;2023-01-15T16:12:55;5.80;99.90
4201;DHT22;2114;50.398;8.814;2023-01-15T16:17:57;5.70;99.90
4201;DHT22;2114;50.398;8.814;2023-01-15T16:23:00;5.70;99.90
4201;DHT22;2114;50.398;8.814;2023-01-15T16:28:02;5.60;99.90
4201;DHT22;2114;50.398;8.814;2023-01-15T16:33:05;5.50;99.90
4201;DHT22;2114;50.398;8.814;2023-01-15T16:38:13;5.40;99.90
4201;DHT22;2114;50.398;8.814;2023-01-15T16:43:22;5.40;99.90
4201;DHT22;2114;50.398;8.814;2023-01-15T16:53:39;5.30;99.90
4201;DHT22;2114;50.398;8.814;2023-01-15T16:58:40;5.20;99.90
4201;DHT22;2114;50.398;8.814;2023-01-15T17:03:40;5.30;99.90
4201;DHT22;2114;50.398;8.814;2023-01-15T17:08:50;5.30;99.90
4201;DHT22;2114;50.398;8.814;2023-01-15T17:14:10;5.30;99.90
4201;DHT22;2114;50.398;8.814;2023-01-15T17:19:10;5.20;99.90
4201;DHT22;2114;50.398;8.814;2023-01-15T17:24:11;5.20;99.90
4201;DHT22;2114;50.398;8.814;2023-01-15T17:29:12;5.20;99.90
4201;DHT22;2114;50.398;8.814;2023-01-15T17:34:12;5.20;99.90
4201;DHT22;2114;50.398;8.814;2023-01-15T17:39:13;5.30;99.90
4201;DHT22;2114;50.398;8.814;2023-01-15T17:44:14;5.20;99.90
4201;DHT22;2114;50.398;8.814;2023-01-15T17:49:14;5.20;99.90
4201;DHT22;2114;50.398;8.814;2023-01-15T17:54:15;5.20;99.90
4201;DHT22;2114;50.398;8.814;2023-01-15T17:59:35;5.20;99.90
4201;DHT22;2114;50.398;8.814;2023-01-15T18:04:55;5.20;99.90
4201;DHT22;2114;50.398;8.814;2023-01-15T18:10:14;5.20;99.90
4201;DHT22;2114;50.398;8.814;2023-01-15T18:15:18;5.10;99.90
4201;DHT22;2114;50.398;8.814;2023-01-15T18:20:19;5.10;99.90
4201;DHT22;2114;50.398;8.814;2023-01-15T18:25:19;5.10;99.90
4201;DHT22;2114;50.398;8.814;2023-01-15T18:30:20;5.00;99.90
4201;DHT22;2114;50.398;8.814;2023-01-15T18:35:20;5.10;99.90
4201;DHT22;2114;50.398;8.814;2023-01-15T18:40:22;5.00;99.90
4201;DHT22;2114;50.398;8.814;2023-01-15T18:45:28;5.00;99.90
4201;DHT22;2114;50.398;8.814;2023-01-15T18:50:47;5.00;99.90
4201;DHT22;2114;50.398;8.814;2023-01-15T18:55:48;4.90;99.90
4201;DHT22;2114;50.398;8.814;2023-01-15T19:00:48;4.90;99.90
4201;DHT22;2114;50.398;8.814;2023-01-15T19:05:49;4.90;99.90
4201;DHT22;2114;50.398;8.814;2023-01-15T19:10:49;4.90;99.90
4201;DHT22;2114;50.398;8.814;2023-01-15T19:15:50;4.80;99.90
4201;DHT22;2114;50.398;8.814;2023-01-15T19:21:26;4.90;99.90
4201;DHT22;2114;50.398;8.814;2023-01-15T19:26:26;4.80;99.90
4201;DHT22;2114;50.398;8.814;2023-01-15T19:31:27;4.80;99.90
4201;DHT22;2114;50.398;8.814;2023-01-15T19:36:38;4.80;99.90
4201;DHT22;2114;50.398;8.814;2023-01-15T19:41:38;4.70;99.90
4201;DHT22;2114;50.398;8.814;2023-01-15T19:46:58;4.70;99.90
4201;DHT22;2114;50.398;8.814;2023-01-15T19:52:17;4.70;99.90
4201;DHT22;2114;50.398;8.814;2023-01-15T19:57:39;4.70;99.90
4201;DHT22;2114;50.398;8.814;2023-01-15T20:02:41;4.70;99.90
4201;DHT22;2114;50.398;8.814;2023-01-15T20:07:42;4.70;99.90
4201;DHT22;2114;50.398;8.814;2023-01-15T20:12:43;4.70;99.90
4201;DHT22;2114;50.398;8.814;2023-01-15T20:18:03;4.60;99.90
4201;DHT22;2114;50.398;8.814;2023-01-15T20:23:04;4.50;99.90
4201;DHT22;2114;50.398;8.814;2023-01-15T20:28:05;4.50;99.90
4201;DHT22;2114;50.398;8.814;2023-01-15T20:33:06;4.40;99.90
4201;DHT22;2114;50.398;8.814;2023-01-15T20:38:07;4.30;99.90
4201;DHT22;2114;50.398;8.814;2023-01-15T20:43:08;4.30;99.90
4201;DHT22;2114;50.398;8.814;2023-01-15T20:48:27;4.20;99.90
4201;DHT22;2114;50.398;8.814;2023-01-15T20:53:47;4.20;99.90
4201;DHT22;2114;50.398;8.814;2023-01-15T20:58:49;4.20;99.90
4201;DHT22;2114;50.398;8.814;2023-01-15T21:03:52;4.10;99.90
4201;DHT22;2114;50.398;8.814;2023-01-15T21:08:52;4.10;99.90
4201;DHT22;2114;50.398;8.814;2023-01-15T21:13:53;4.10;99.90
4201;DHT22;2114;50.398;8.814;2023-01-15T21:18:54;4.10;99.90
4201;DHT22;2114;50.398;8.814;2023-01-15T21:23:54;4.10;99.90
4201;DHT22;2114;50.398;8.814;2023-01-15T21:28:55;4.20;99.90
4201;DHT22;2114;50.398;8.814;2023-01-15T21:33:56;4.20;99.90
4201;DHT22;2114;50.398;8.814;2023-01-15T21:38:56;4.30;99.90
4201;DHT22;2114;50.398;8.814;2023-01-15T21:43:58;4.30;99.90
4201;DHT22;2114;50.398;8.814;2023-01-15T21:49:17;4.20;99.90
4201;DHT22;2114;50.398;8.814;2023-01-15T21:54:17;4.20;99.90
4201;DHT22;2114;50.398;8.814;2023-01-15T21:59:18;4.20;99.90
4201;DHT22;2114;50.398;8.814;2023-01-15T22:04:19;4.20;99.90
4201;DHT22;2114;50.398;8.814;2023-01-15T22:09:20;4.20;99.90
4201;DHT22;2114;50.398;8.814;2023-01-15T22:14:26;4.20;99.90
4201;DHT22;2114;50.398;8.814;2023-01-15T22:19:28;4.20;99.90
4201;DHT22;2114;50.398;8.814;2023-01-15T22:24:30;4.20;99.90
4201;DHT22;2114;50.398;8.814;2023-01-15T22:29:35;4.20;99.90
4201;DHT22;2114;50.398;8.814;2023-01-15T22:34:37;4.10;99.90
4201;DHT22;2114;50.398;8.814;2023-01-15T22:39:38;4.20;99.90
4201;DHT22;2114;50.398;8.814;2023-01-15T22:44:39;4.10;99.90
4201;DHT22;2114;50.398;8.814;2023-01-15T22:49:39;4.00;99.90
4201;DHT22;2114;50.398;8.814;2023-01-15T22:54:40;3.90;99.90
4201;DHT22;2114;50.398;8.814;2023-01-15T22:59:44;3.80;99.90
4201;DHT22;2114;50.398;8.814;2023-01-15T23:04:44;3.70;99.90
4201;DHT22;2114;50.398;8.814;2023-01-15T23:09:45;3.60;99.90
4201;DHT22;2114;50.398;8.814;2023-01-15T23:14:49;3.60;99.90
4201;DHT22;2114;50.398;8.814;2023-01-15T23:19:49;3.60;99.90
4201;DHT22;2114;50.398;8.814;2023-01-15T23:24:50;3.60;99.90
4201;DHT22;2114;50.398;8.814;2023-01-15T23:29:50;3.50;99.90
4201;DHT22;2114;50.398;8.814;2023-01-15T23:34:51;3.60;99.90
4201;DHT22;2114;50.398;8.814;2023-01-15T23:39:51;3.60;99.90
4201;DHT22;2114;50.398;8.814;2023-01-15T23:44:52;3.60;99.90
4201;DHT22;2114;50.398;8.814;2023-01-15T23:50:11;3.60;99.90
4201;DHT22;2114;50.398;8.814;2023-01-15T23:55:12;3.60;99.90
